Glasgow, Montana
Current Conditions -  °F | °C
As of 10:53 PM on Wednesday 17 Dec 2014 (Local Time) from KGGW Reporting Station
Overcast Overcast  
Wind Chill: 14°   Ceiling: 900
Heat Index: 24°   Visibility: 10mi
Dew Point: 19°   Wind: 10mph
Humidity: 81%   Direction: 100°E
Pressure: 29.97"   Gusts: NA
Location:  48.2°N, 106.64°W
Report Text: KGGW 180553Z AUTO 10009KT 10SM OVC009 M04/M07 A2997 RMK AO2 SLP188 T10441072 11044 21050 55001
Loading
Personal Weather Stations






























Interactive Weather Map New forecast layout! Learn more

10-Day Weather Forecast

Advertisements
Track Severe Weather on mobile